Nearby METAR Reports

 

KMLP - Mullan Pass
Updated: Wed, 16-Jan-2019 2:53am PST
Clear
Clear
 Wind from S
Wind: S 7 mph , 11 km/h
Temperature: 23°F , -5°C
Wind Chill: 15°F , -9°C
Dew Point: 16°F , -9°C
Humidity: 74%
Barometer: 29.85 inHg , 1010.8 hPa
Clouds: Clear
Visibility: 10 miles , 16 km
2019/01/16 10:53 KMLP 161053Z AUTO 17006KT 10SM CLR M05/M09 A2985 RMK AO2 SLP139 T10501089
KCOE - Coeur d Alene
Updated: Wed, 16-Jan-2019 2:56am PST
Mostly Cloudy
Mostly Cloudy
 Wind from ENE
Wind: ENE 12 mph , 19 km/h
Temperature: 25°F , -4°C
Wind Chill: 14°F , -10°C
Dew Point: 18°F , -8°C
Humidity: 74%
Barometer: 29.97 inHg , 1014.9 hPa
Clouds: Mostly Cloudy
Visibility: 10 miles , 16 km
Cloud details: Mostly Cloudy 7000 ft
2019/01/16 10:56 KCOE 161056Z AUTO 06010KT 10SM BKN070 M04/M08 A2997 RMK AO2 SLP193 T10441078 FZRANO
 
KLWS - Lewiston
Updated: Wed, 16-Jan-2019 2:56am PST
Clear
Clear
 Wind from calm
Wind: Calm
Temperature: 25°F , -4°C
Dew Point: 21°F , -6°C
Humidity: 86%
Barometer: 29.96 inHg , 1014.6 hPa
Clouds: Clear
Visibility: 10 miles , 16 km
2019/01/16 10:56 KLWS 161056Z AUTO 00000KT 10SM CLR M04/M06 A2996 RMK AO2 SLP161 I1000 T10391061
KGEG - Spokane Intl
Updated: Wed, 16-Jan-2019 2:53am PST
Overcast
Overcast
 Wind from ENE
Wind: ENE 10 mph , 17 km/h
Temperature: 27°F , -3°C
Wind Chill: 18°F , -8°C
Dew Point: 19°F , -7°C
Humidity: 74%
Barometer: 29.93 inHg , 1013.5 hPa
Clouds: Overcast
Visibility: 10 miles , 16 km
Cloud details: Overcast 6500 ft
2019/01/16 10:53 KGEG 161053Z 06009KT 10SM OVC065 M03/M07 A2993 RMK AO2 SLP160 T10331072